Time;durP1;ratioP1;P1;durP2;ratioP2;P2;SDS_P1;SDS_P2;PMS_P1;PMS_P2;Temp;Humidity;BMP_temperature;BMP_pressure;BME280_temperature;BME280_humidity;BME280_pressure;Samples;Min_cycle;Max_cycle;Signal;HPM_P1;HPM_P2
2021/04/01 00:00:10;;;;;;;11.90;6.40;;;13.30;50.20;;;;;;5041872;28;20639;-85
2021/04/01 00:02:37;;;;;;;14.43;7.67;;;13.20;50.00;;;;;;5035117;28;20689;-85
2021/04/01 00:05:07;;;;;;;10.50;7.63;;;13.20;50.40;;;;;;5026370;28;20634;-85
2021/04/01 00:07:33;;;;;;;8.03;6.30;;;13.10;50.40;;;;;;5041538;28;20614;-85
2021/04/01 00:10:01;;;;;;;10.47;8.03;;;13.00;50.50;;;;;;5026715;28;20665;-85
2021/04/01 00:12:27;;;;;;;11.73;6.90;;;13.00;50.50;;;;;;5039233;28;20618;-85
2021/04/01 00:14:53;;;;;;;9.30;6.60;;;12.90;50.60;;;;;;5043372;28;20610;-85
2021/04/01 00:17:21;;;;;;;11.83;8.10;;;12.90;50.50;;;;;;5048934;28;20614;-85
2021/04/01 00:19:48;;;;;;;8.40;6.50;;;12.90;50.60;;;;;;5031405;28;21305;-85
2021/04/01 00:22:14;;;;;;;8.53;7.07;;;12.90;51.10;;;;;;5043008;28;20958;-85
2021/04/01 00:24:41;;;;;;;13.97;7.77;;;12.80;50.60;;;;;;5032558;28;20635;-85
2021/04/01 00:27:08;;;;;;;9.83;6.70;;;12.80;50.40;;;;;;5031097;28;20693;-85
2021/04/01 00:29:34;;;;;;;9.50;7.30;;;12.80;50.90;;;;;;5040219;28;20670;-85
2021/04/01 00:32:01;;;;;;;11.50;7.50;;;12.80;51.10;;;;;;5032065;28;21163;-85
2021/04/01 00:34:28;;;;;;;9.87;6.63;;;12.80;50.60;;;;;;5030664;28;20615;-85
2021/04/01 00:36:55;;;;;;;10.47;7.47;;;12.80;50.60;;;;;;5031331;28;20631;-85
2021/04/01 00:39:21;;;;;;;16.17;8.50;;;12.80;50.50;;;;;;5031807;28;20964;-85
2021/04/01 00:41:47;;;;;;;9.87;7.60;;;12.80;50.30;;;;;;5039535;28;20636;-85
2021/04/01 00:44:16;;;;;;;13.27;8.20;;;12.80;50.00;;;;;;5033235;28;20651;-85
2021/04/01 00:46:47;;;;;;;11.40;7.10;;;12.80;50.00;;;;;;5037727;28;20676;-85
2021/04/01 00:49:14;;;;;;;10.30;8.00;;;12.80;49.90;;;;;;5048267;28;20950;-85
2021/04/01 00:51:41;;;;;;;9.30;7.23;;;12.80;49.80;;;;;;5043256;28;20639;-85
2021/04/01 00:54:08;;;;;;;8.83;7.90;;;12.80;49.80;;;;;;5033836;28;20619;-85
2021/04/01 00:56:35;;;;;;;9.43;7.93;;;12.80;50.20;;;;;;5030501;28;20622;-85
2021/04/01 00:59:02;;;;;;;10.10;8.00;;;12.80;50.30;;;;;;5044022;28;20676;-86
2021/04/01 01:01:36;;;;;;;12.90;8.77;;;12.80;50.10;;;;;;5034779;28;20661;-85
2021/04/01 01:04:04;;;;;;;9.80;7.53;;;12.80;50.00;;;;;;5029853;28;20650;-85
2021/04/01 01:06:32;;;;;;;7.90;7.13;;;12.70;50.90;;;;;;5035255;28;20909;-85
2021/04/01 01:09:01;;;;;;;10.93;7.10;;;12.60;50.50;;;;;;5035884;28;20627;-85
2021/04/01 01:11:30;;;;;;;11.40;7.30;;;12.60;50.30;;;;;;5033855;28;20625;-85
2021/04/01 01:13:57;;;;;;;13.10;8.80;;;12.50;50.70;;;;;;5039102;28;21121;-85
2021/04/01 01:16:25;;;;;;;11.33;8.80;;;12.50;50.30;;;;;;5041187;28;21244;-85
2021/04/01 01:18:52;;;;;;;10.37;8.00;;;12.50;51.00;;;;;;5046343;28;21631;-85
2021/04/01 01:21:20;;;;;;;10.77;7.63;;;12.30;51.30;;;;;;5055231;28;20712;-84
2021/04/01 01:23:50;;;;;;;8.90;8.00;;;12.20;51.20;;;;;;5049812;28;20673;-85
2021/04/01 01:26:20;;;;;;;9.73;7.90;;;12.20;51.10;;;;;;5052112;28;20625;-85
2021/04/01 01:28:48;;;;;;;11.73;7.00;;;12.20;51.50;;;;;;5046158;28;20622;-84
2021/04/01 01:31:19;;;;;;;9.67;7.57;;;12.20;51.20;;;;;;5053243;28;21197;-84
2021/04/01 01:33:47;;;;;;;8.30;6.97;;;12.30;51.20;;;;;;5042789;28;20633;-84
2021/04/01 01:36:16;;;;;;;14.00;7.37;;;12.30;51.40;;;;;;5040353;28;20623;-83
2021/04/01 01:38:43;;;;;;;10.80;7.00;;;12.10;51.30;;;;;;5036595;28;21550;-84
2021/04/01 01:41:11;;;;;;;7.20;6.50;;;12.00;51.60;;;;;;5064455;28;21286;-84
2021/04/01 01:43:39;;;;;;;13.73;7.37;;;12.10;51.40;;;;;;5055579;28;20657;-84
2021/04/01 01:46:06;;;;;;;8.10;7.13;;;12.00;51.30;;;;;;5046808;28;20657;-84
2021/04/01 01:48:34;;;;;;;16.70;8.80;;;12.00;51.00;;;;;;5043883;28;20631;-84
2021/04/01 01:51:02;;;;;;;7.47;6.43;;;12.10;50.80;;;;;;5037852;28;20646;-85
2021/04/01 01:53:31;;;;;;;17.37;7.17;;;12.10;50.80;;;;;;5029390;28;20646;-84
2021/04/01 01:55:59;;;;;;;8.30;6.50;;;12.10;51.50;;;;;;5029017;28;20678;-84
2021/04/01 01:58:27;;;;;;;8.00;7.00;;;12.10;51.60;;;;;;5046891;28;20620;-84
2021/04/01 02:00:57;;;;;;;10.93;7.90;;;12.20;51.60;;;;;;5048811;28;20665;-84
2021/04/01 02:03:27;;;;;;;9.43;6.83;;;12.00;51.50;;;;;;5042624;28;20627;-84
2021/04/01 02:05:55;;;;;;;10.07;7.07;;;11.90;51.70;;;;;;5034096;28;21314;-83
2021/04/01 02:08:22;;;;;;;9.87;7.07;;;11.70;51.90;;;;;;5043434;28;20632;-84
2021/04/01 02:10:51;;;;;;;15.17;7.50;;;11.70;51.70;;;;;;5028729;28;20664;-84
2021/04/01 02:13:24;;;;;;;8.20;7.30;;;11.70;51.80;;;;;;5034103;28;20619;-84
2021/04/01 02:15:56;;;;;;;10.83;7.33;;;11.70;52.00;;;;;;5049050;28;20644;-84
2021/04/01 02:18:26;;;;;;;11.77;7.40;;;11.80;52.10;;;;;;5046494;28;21206;-84
2021/04/01 02:20:56;;;;;;;11.17;6.50;;;11.80;52.20;;;;;;5048941;28;20661;-84
2021/04/01 02:23:25;;;;;;;8.53;6.93;;;11.70;52.20;;;;;;5027739;28;20623;-84
2021/04/01 02:25:55;;;;;;;12.40;7.33;;;11.60;52.40;;;;;;5028216;28;20623;-84
2021/04/01 02:28:25;;;;;;;9.95;7.00;;;11.50;52.40;;;;;;5045011;28;21036;-84
2021/04/01 02:30:56;;;;;;;12.70;7.40;;;11.60;52.60;;;;;;5050673;28;20200;-84
2021/04/01 02:33:28;;;;;;;14.63;7.90;;;11.60;52.50;;;;;;5053272;28;20681;-84
2021/04/01 02:35:57;;;;;;;15.53;7.77;;;11.50;52.50;;;;;;5028343;28;20753;-84
2021/04/01 02:38:26;;;;;;;9.23;6.07;;;11.50;52.70;;;;;;5032407;28;20627;-84
2021/04/01 02:40:54;;;;;;;7.65;6.88;;;11.50;52.70;;;;;;5028753;28;20259;-85
2021/04/01 02:43:25;;;;;;;9.45;7.25;;;11.60;52.60;;;;;;5029625;28;20601;-84
2021/04/01 02:45:52;;;;;;;6.90;6.10;;;11.70;52.30;;;;;;5047260;28;20200;-84
2021/04/01 02:48:20;;;;;;;8.30;7.40;;;11.70;52.70;;;;;;5034083;28;20721;-85
2021/04/01 02:50:46;;;;;;;8.07;7.18;;;11.50;52.80;;;;;;5047935;28;20632;-84
2021/04/01 02:53:13;;;;;;;11.35;8.20;;;11.30;53.00;;;;;;5044069;28;20199;-84
2021/04/01 02:55:39;;;;;;;9.85;7.15;;;11.20;53.00;;;;;;5048068;28;20196;-84
2021/04/01 02:58:05;;;;;;;8.37;6.97;;;11.20;53.20;;;;;;5032900;28;20672;-84
2021/04/01 03:00:34;;;;;;;18.10;7.20;;;11.20;53.20;;;;;;5047461;28;20646;-84
2021/04/01 03:03:04;;;;;;;9.32;7.65;;;11.20;53.20;;;;;;5030179;28;20629;-85
2021/04/01 03:05:31;;;;;;;8.50;6.93;;;11.20;53.30;;;;;;5031228;28;20315;-85
2021/04/01 03:07:58;;;;;;;10.25;7.07;;;11.20;53.20;;;;;;5046040;28;20220;-84
2021/04/01 03:10:24;;;;;;;10.27;7.53;;;11.20;53.20;;;;;;5046864;28;20341;-84
2021/04/01 03:12:51;;;;;;;8.95;6.88;;;11.20;53.20;;;;;;5044098;28;20184;-84
2021/04/01 03:15:18;;;;;;;9.18;8.10;;;11.20;53.40;;;;;;5046501;28;20204;-84
2021/04/01 03:17:45;;;;;;;9.50;6.57;;;11.20;53.20;;;;;;5042308;28;20203;-84
2021/04/01 03:20:12;;;;;;;11.43;6.75;;;11.20;53.80;;;;;;5044994;28;20748;-84
2021/04/01 03:22:40;;;;;;;10.53;9.10;;;11.20;53.40;;;;;;5044045;28;20214;-84
2021/04/01 03:25:09;;;;;;;8.48;7.53;;;11.20;53.30;;;;;;5030162;28;20718;-84
2021/04/01 03:27:36;;;;;;;8.77;7.87;;;11.10;53.20;;;;;;5028569;28;20205;-84
2021/04/01 03:30:05;;;;;;;7.68;6.75;;;11.20;53.30;;;;;;5047532;28;20680;-84
2021/04/01 03:32:32;;;;;;;10.05;9.05;;;11.20;53.30;;;;;;5060463;28;20203;-84
2021/04/01 03:35:00;;;;;;;8.52;6.70;;;11.20;53.10;;;;;;5042817;28;20184;-84
2021/04/01 03:37:26;;;;;;;8.18;7.03;;;11.20;53.10;;;;;;5044156;28;20661;-85
2021/04/01 03:39:54;;;;;;;11.45;7.18;;;11.10;53.40;;;;;;5026054;28;20641;-85
2021/04/01 03:42:24;;;;;;;10.55;7.20;;;11.10;53.40;;;;;;5027455;28;20274;-84
2021/04/01 03:44:51;;;;;;;11.50;8.18;;;11.10;53.50;;;;;;5026724;28;20196;-84
2021/04/01 03:47:17;;;;;;;11.02;7.13;;;11.10;53.50;;;;;;5026296;28;20211;-84
2021/04/01 03:49:44;;;;;;;9.40;7.50;;;11.00;53.70;;;;;;5029207;28;20197;-84
2021/04/01 03:52:10;;;;;;;11.70;6.93;;;11.00;53.60;;;;;;5028694;28;20197;-84
2021/04/01 03:54:37;;;;;;;9.55;7.63;;;11.00;53.70;;;;;;5041038;28;20625;-84
2021/04/01 03:57:07;;;;;;;12.05;7.68;;;11.00;53.80;;;;;;5036404;28;20205;-84
2021/04/01 03:59:40;;;;;;;7.97;7.18;;;11.00;53.70;;;;;;5033691;28;20296;-84
2021/04/01 04:02:17;;;;;;;11.23;7.95;;;10.90;53.70;;;;;;5046502;28;20283;-83
2021/04/01 04:07:51;;;;;;;8.30;7.50;;;10.90;53.80;;;;;;5029288;28;20777;-84
2021/04/01 04:10:30;;;;;;;9.57;8.40;;;10.80;54.00;;;;;;5043958;28;20215;-83
2021/04/01 04:13:07;;;;;;;8.10;7.30;;;10.90;54.10;;;;;;5032371;28;20322;-84
2021/04/01 04:15:33;;;;;;;9.65;7.88;;;11.00;54.10;;;;;;5040677;28;20939;-84
2021/04/01 04:18:01;;;;;;;8.95;7.70;;;10.90;54.10;;;;;;5041624;28;21009;-84
2021/04/01 04:20:27;;;;;;;9.25;8.25;;;10.80;54.20;;;;;;5027141;28;20209;-84
2021/04/01 04:22:54;;;;;;;10.55;8.23;;;10.70;54.30;;;;;;5038217;28;20675;-84
2021/04/01 04:25:20;;;;;;;10.90;8.52;;;10.70;54.40;;;;;;5027041;28;20208;-84
2021/04/01 04:30:35;;;;;;;9.70;7.95;;;10.70;54.60;;;;;;5037169;28;20223;-84
2021/04/01 04:33:02;;;;;;;10.15;8.13;;;10.70;54.60;;;;;;5039520;28;20217;-84
2021/04/01 04:35:28;;;;;;;8.82;7.88;;;10.80;54.50;;;;;;5046739;28;20701;-84
2021/04/01 04:37:55;;;;;;;10.48;8.43;;;10.70;54.40;;;;;;5044497;28;20203;-83
2021/04/01 04:40:22;;;;;;;9.00;8.10;;;10.50;54.60;;;;;;5027427;28;20223;-84
2021/04/01 04:42:48;;;;;;;10.55;8.57;;;10.60;54.80;;;;;;5027987;28;20323;-84
2021/04/01 04:45:15;;;;;;;12.55;9.13;;;10.60;54.70;;;;;;5046639;28;20200;-84
2021/04/01 04:47:42;;;;;;;9.30;8.27;;;10.70;54.60;;;;;;5043888;28;20212;-83
2021/04/01 04:50:10;;;;;;;9.90;8.18;;;10.60;54.70;;;;;;5046347;28;20778;-84
2021/04/01 04:52:38;;;;;;;10.20;8.70;;;10.50;54.80;;;;;;5045915;28;20189;-84
2021/04/01 04:55:08;;;;;;;8.98;8.05;;;10.50;54.80;;;;;;5055843;28;20237;-83
2021/04/01 04:57:40;;;;;;;11.55;9.35;;;10.40;54.80;;;;;;5052051;28;20284;-85
2021/04/01 05:05:37;;;;;;;16.13;9.48;;;10.50;55.00;;;;;;5058050;28;20283;-85
2021/04/01 05:08:04;;;;;;;15.82;10.05;;;10.50;55.10;;;;;;5060860;28;20207;-85
2021/04/01 05:10:31;;;;;;;16.20;9.40;;;10.40;55.30;;;;;;5056795;28;20238;-85
2021/04/01 05:13:08;;;;;;;15.55;8.30;;;10.30;55.40;;;;;;5054795;28;20669;-85
2021/04/01 05:15:40;;;;;;;18.05;8.82;;;10.40;55.30;;;;;;5058565;28;20200;-85
2021/04/01 05:20:55;;;;;;;15.60;7.97;;;10.40;55.50;;;;;;5059024;28;20215;-85
2021/04/01 05:23:27;;;;;;;12.05;8.10;;;10.50;55.50;;;;;;5052253;28;20267;-85
2021/04/01 05:26:07;;;;;;;11.98;8.63;;;10.60;55.40;;;;;;5056987;28;20219;-85
2021/04/01 05:28:35;;;;;;;13.07;8.35;;;10.60;55.00;;;;;;5055128;28;20204;-85
2021/04/01 05:31:03;;;;;;;15.57;8.18;;;10.70;55.50;;;;;;5059121;28;20285;-85
2021/04/01 05:33:33;;;;;;;12.30;9.05;;;10.80;55.40;;;;;;5055853;28;20669;-85
2021/04/01 05:36:07;;;;;;;11.20;8.30;;;10.90;55.30;;;;;;5055981;28;20199;-85
2021/04/01 05:38:34;;;;;;;13.43;9.32;;;11.00;55.30;;;;;;5051285;28;20284;-85
2021/04/01 05:41:01;;;;;;;22.23;9.30;;;11.00;55.40;;;;;;5053737;28;20192;-85
2021/04/01 05:43:30;;;;;;;16.65;8.70;;;10.90;55.10;;;;;;5055062;28;20203;-85
2021/04/01 05:45:59;;;;;;;12.15;8.07;;;11.00;55.00;;;;;;5056999;28;20215;-85
2021/04/01 05:48:36;;;;;;;17.58;9.15;;;11.10;55.10;;;;;;5055283;28;20197;-85
2021/04/01 05:51:25;;;;;;;10.63;8.15;;;11.10;54.60;;;;;;5052158;28;20220;-85
2021/04/01 06:00:30;;;;;;;7.95;6.32;;;11.40;54.00;;;;;;5048307;28;20218;-86
2021/04/01 06:03:18;;;;;;;8.10;7.30;;;11.50;54.00;;;;;;5047005;28;20193;-85
2021/04/01 06:05:47;;;;;;;19.80;8.20;;;11.70;54.10;;;;;;5029613;28;21027;-85
2021/04/01 06:08:17;;;;;;;11.13;6.95;;;11.80;54.10;;;;;;5031584;28;20628;-85
2021/04/01 06:10:43;;;;;;;14.40;7.87;;;11.90;54.10;;;;;;5056689;28;20222;-85
2021/04/01 06:13:12;;;;;;;11.00;6.60;;;12.10;53.90;;;;;;5055842;28;20674;-85
2021/04/01 06:15:43;;;;;;;12.75;7.25;;;12.10;53.10;;;;;;5057764;28;20755;-85
2021/04/01 06:18:11;;;;;;;8.93;6.67;;;12.10;53.20;;;;;;5052290;28;20833;-85
2021/04/01 06:20:40;;;;;;;12.80;7.80;;;12.20;53.30;;;;;;5057762;28;20606;-85
2021/04/01 06:23:07;;;;;;;8.13;7.33;;;12.30;53.50;;;;;;5053326;28;21175;-86
2021/04/01 06:25:38;;;;;;;9.80;7.37;;;12.50;53.10;;;;;;5058698;28;20613;-85
2021/04/01 06:28:08;;;;;;;15.37;7.73;;;12.50;52.70;;;;;;5055936;28;20625;-86
2021/04/01 06:31:06;;;;;;;12.73;6.73;;;12.50;52.70;;;;;;5048995;28;21267;-87
2021/04/01 06:33:43;;;;;;;13.73;7.67;;;12.60;53.10;;;;;;5010773;28;20624;-86
2021/04/01 06:36:17;;;;;;;14.03;8.50;;;12.70;52.80;;;;;;5046999;28;20626;-85
2021/04/01 06:38:44;;;;;;;9.33;7.83;;;12.80;52.80;;;;;;5042709;28;20661;-85
2021/04/01 06:41:20;;;;;;;9.63;7.17;;;12.90;52.40;;;;;;5032887;28;20606;-85
2021/04/01 06:43:58;;;;;;;12.77;8.40;;;13.00;52.20;;;;;;5032285;28;20704;-86
2021/04/01 06:46:26;;;;;;;14.20;8.70;;;13.20;52.10;;;;;;5051500;28;20622;-85
2021/04/01 06:52:02;;;;;;;10.10;7.20;;;13.50;52.40;;;;;;5097254;27;20713;-86
2021/04/01 06:54:33;;;;;;;14.90;7.60;;;13.80;52.10;;;;;;5085444;28;20628;-86
2021/04/01 06:57:30;;;;;;;9.33;7.43;;;14.00;51.40;;;;;;5089876;28;20619;-86
2021/04/01 07:00:09;;;;;;;13.63;9.23;;;14.20;51.10;;;;;;5091648;28;21037;-86
2021/04/01 07:02:42;;;;;;;10.73;8.23;;;14.50;51.50;;;;;;5083813;28;20632;-86
2021/04/01 07:05:21;;;;;;;11.90;8.30;;;14.70;51.80;;;;;;5084586;28;20624;-86
2021/04/01 07:07:58;;;;;;;8.93;7.60;;;14.90;50.60;;;;;;5084410;28;21237;-86
2021/04/01 07:10:39;;;;;;;8.83;7.30;;;15.00;50.70;;;;;;5085263;28;20656;-85
2021/04/01 07:13:09;;;;;;;9.50;7.70;;;15.00;50.80;;;;;;5083670;28;20620;-86
2021/04/01 07:15:42;;;;;;;10.90;8.27;;;15.20;50.40;;;;;;5083868;28;20628;-86
2021/04/01 07:18:25;;;;;;;8.50;7.60;;;15.20;50.30;;;;;;5090222;28;20628;-86
2021/04/01 07:21:18;;;;;;;8.50;7.00;;;15.30;50.10;;;;;;5082604;28;20629;-86
2021/04/01 07:35:36;;;;;;;8.10;7.30;;;15.80;49.90;;;;;;5103963;28;20652;-86
2021/04/01 07:46:42;;;;;;;7.87;6.97;;;16.30;49.50;;;;;;5104411;28;20746;-87
2021/04/01 07:49:19;;;;;;;7.90;6.13;;;16.50;48.40;;;;;;5105290;28;20722;-86
2021/04/01 07:52:02;;;;;;;7.50;5.77;;;16.70;48.10;;;;;;5103861;28;20745;-87
2021/04/01 07:54:35;;;;;;;10.10;7.00;;;16.90;48.50;;;;;;5104320;28;20982;-87
2021/04/01 07:57:15;;;;;;;8.30;6.70;;;17.00;48.30;;;;;;5093823;28;21002;-87
2021/04/01 08:02:50;;;;;;;13.93;7.00;;;17.50;47.60;;;;;;5072402;28;20633;-87
2021/04/01 08:05:24;;;;;;;7.27;6.13;;;17.70;47.60;;;;;;5070990;28;20735;-87
2021/04/01 08:07:55;;;;;;;7.67;5.33;;;17.90;47.30;;;;;;5070577;28;20648;-87
2021/04/01 08:10:26;;;;;;;11.33;5.67;;;17.80;46.40;;;;;;5068963;28;20665;-87
2021/04/01 08:13:02;;;;;;;6.70;5.87;;;17.80;46.40;;;;;;5070277;28;20636;-87
2021/04/01 08:15:34;;;;;;;8.50;5.93;;;18.00;46.90;;;;;;5070457;28;20607;-88
2021/04/01 08:18:11;;;;;;;6.17;5.13;;;18.40;47.10;;;;;;5070390;28;20617;-88
2021/04/01 08:20:41;;;;;;;6.27;4.37;;;18.60;46.30;;;;;;5070206;28;20635;-88
2021/04/01 08:23:14;;;;;;;5.50;4.97;;;18.90;46.00;;;;;;5069105;28;20667;-87
2021/04/01 08:25:45;;;;;;;6.63;4.00;;;19.10;45.90;;;;;;5070258;28;20712;-88
2021/04/01 08:28:27;;;;;;;6.77;4.00;;;19.10;45.50;;;;;;5069810;28;21174;-89
2021/04/01 08:31:36;;;;;;;4.30;3.93;;;19.10;46.10;;;;;;5073169;28;20652;-87
2021/04/01 08:34:13;;;;;;;4.53;3.70;;;19.20;44.90;;;;;;5090100;28;21079;-87
2021/04/01 08:36:44;;;;;;;3.60;3.27;;;19.30;44.60;;;;;;5090546;28;20964;-88
2021/04/01 08:39:12;;;;;;;3.77;3.13;;;19.30;43.40;;;;;;5089932;28;20984;-88
2021/04/01 08:42:20;;;;;;;4.10;3.30;;;19.40;44.70;;;;;;5089492;28;21284;-88
2021/04/01 08:45:28;;;;;;;6.60;3.90;;;19.60;44.40;;;;;;5090197;28;20678;-88
2021/04/01 08:48:11;;;;;;;3.07;2.87;;;19.90;43.80;;;;;;5089610;28;20932;-88
2021/04/01 08:50:48;;;;;;;3.50;3.30;;;20.10;42.70;;;;;;5089434;28;20671;-89
2021/04/01 08:53:35;;;;;;;3.77;3.47;;;20.20;42.30;;;;;;5089310;28;20620;-89
2021/04/01 08:56:12;;;;;;;3.27;2.87;;;20.40;42.30;;;;;;5089628;28;20718;-88
2021/04/01 08:58:42;;;;;;;3.20;3.00;;;20.70;42.80;;;;;;5089940;28;20636;-88
2021/04/01 09:01:18;;;;;;;3.40;3.10;;;20.90;43.40;;;;;;5089605;28;20612;-88
2021/04/01 09:03:49;;;;;;;3.17;2.87;;;20.90;42.70;;;;;;5089343;28;20622;-89
2021/04/01 09:06:20;;;;;;;4.13;3.30;;;20.90;43.00;;;;;;5089219;28;20621;-88
2021/04/01 09:08:53;;;;;;;4.30;2.93;;;20.80;42.50;;;;;;5088746;28;20628;-88
2021/04/01 09:11:30;;;;;;;4.27;3.97;;;20.90;43.00;;;;;;5089582;28;20678;-89
2021/04/01 09:13:57;;;;;;;4.60;3.47;;;21.00;42.30;;;;;;5088027;28;20604;-88
2021/04/01 09:16:27;;;;;;;3.37;2.87;;;21.20;42.40;;;;;;5089346;28;20640;-88
2021/04/01 09:19:03;;;;;;;3.77;3.37;;;21.10;41.70;;;;;;5088721;28;20639;-88
2021/04/01 09:21:32;;;;;;;4.53;3.23;;;21.30;41.90;;;;;;5088651;28;20988;-88
2021/04/01 09:24:00;;;;;;;6.33;4.80;;;21.20;41.90;;;;;;5087915;28;20609;-88
2021/04/01 09:26:27;;;;;;;4.93;4.47;;;21.40;42.90;;;;;;5088429;28;20624;-89
2021/04/01 09:29:04;;;;;;;6.70;3.87;;;21.80;42.40;;;;;;5088395;28;20609;-89
2021/04/01 09:31:42;;;;;;;6.10;4.23;;;21.50;42.70;;;;;;5079885;28;21283;-89
2021/04/01 09:34:10;;;;;;;6.70;4.80;;;21.60;43.20;;;;;;5067755;28;20614;-89
2021/04/01 09:36:38;;;;;;;6.80;5.17;;;22.00;43.00;;;;;;5068314;28;20597;-89
2021/04/01 09:39:18;;;;;;;6.00;4.97;;;22.10;42.50;;;;;;5068945;28;20601;-89
2021/04/01 09:41:46;;;;;;;5.87;5.23;;;22.20;43.20;;;;;;5068047;28;20629;-88
2021/04/01 09:44:12;;;;;;;5.50;5.07;;;22.20;42.90;;;;;;5067063;28;20964;-89
2021/04/01 09:46:56;;;;;;;7.07;4.87;;;22.20;43.40;;;;;;5068207;28;20617;-89
2021/04/01 09:49:26;;;;;;;5.53;5.00;;;22.30;43.10;;;;;;5068149;28;20622;-88
2021/04/01 09:51:53;;;;;;;6.23;5.63;;;22.30;43.00;;;;;;5067553;28;20726;-89
2021/04/01 09:54:20;;;;;;;6.90;5.60;;;22.20;43.40;;;;;;5067463;28;20629;-89
2021/04/01 09:56:54;;;;;;;9.60;5.90;;;22.10;43.50;;;;;;5067125;28;20606;-89
2021/04/01 09:59:25;;;;;;;6.57;5.60;;;22.20;43.20;;;;;;5068000;28;20621;-89
2021/04/01 10:02:06;;;;;;;6.47;5.77;;;22.30;44.10;;;;;;5067748;28;20628;-89
2021/04/01 10:04:35;;;;;;;7.30;5.90;;;22.20;43.30;;;;;;5066834;28;20636;-89
2021/04/01 10:07:13;;;;;;;8.40;6.20;;;21.80;43.30;;;;;;5067229;28;20618;-89
2021/04/01 10:09:50;;;;;;;6.40;5.80;;;21.80;43.80;;;;;;5067649;28;20796;-89
2021/04/01 10:12:19;;;;;;;6.37;5.43;;;22.00;43.90;;;;;;5067566;28;20623;-89
2021/04/01 10:14:51;;;;;;;6.00;5.33;;;22.00;43.70;;;;;;5067174;28;20690;-89
2021/04/01 10:17:20;;;;;;;8.37;6.33;;;22.20;43.60;;;;;;5067181;28;20613;-89
2021/04/01 10:19:56;;;;;;;7.27;6.07;;;22.00;43.40;;;;;;5066841;28;20618;-89
2021/04/01 10:22:24;;;;;;;6.53;5.87;;;22.20;43.70;;;;;;5067138;28;20610;-89
2021/04/01 10:25:11;;;;;;;8.30;6.23;;;22.50;43.60;;;;;;5066844;28;20625;-89
2021/04/01 10:27:44;;;;;;;5.67;5.17;;;21.90;43.10;;;;;;5067304;28;20639;-89
2021/04/01 10:30:12;;;;;;;11.70;6.57;;;22.00;43.30;;;;;;5066782;28;20645;-88
2021/04/01 10:32:42;;;;;;;7.73;6.13;;;22.40;43.70;;;;;;5084513;28;20715;-88
2021/04/01 10:35:11;;;;;;;6.70;5.40;;;22.60;41.90;;;;;;5087720;28;20612;-90
2021/04/01 10:37:45;;;;;;;6.43;5.80;;;22.80;43.10;;;;;;5087888;28;20616;-90
2021/04/01 10:40:14;;;;;;;9.43;5.80;;;22.80;42.70;;;;;;5087655;28;20662;-89
2021/04/01 10:42:45;;;;;;;6.40;5.80;;;23.00;42.40;;;;;;5086300;28;20723;-89
2021/04/01 10:45:15;;;;;;;5.87;5.07;;;23.20;41.30;;;;;;5087496;28;20950;-89
2021/04/01 10:48:05;;;;;;;5.47;4.97;;;23.30;41.60;;;;;;5087393;28;21224;-90
2021/04/01 10:50:32;;;;;;;5.67;4.67;;;23.50;41.60;;;;;;5087396;28;20703;-89
2021/04/01 10:52:59;;;;;;;5.33;4.83;;;23.60;41.80;;;;;;5085955;28;20620;-90
2021/04/01 10:55:27;;;;;;;5.07;4.67;;;23.10;41.70;;;;;;5086704;28;20619;-90
2021/04/01 10:57:54;;;;;;;5.27;4.63;;;23.30;41.90;;;;;;5087451;28;20609;-90
2021/04/01 11:00:21;;;;;;;8.20;4.73;;;23.30;40.90;;;;;;5080620;28;20665;-89
2021/04/01 11:02:52;;;;;;;5.43;4.10;;;23.40;41.00;;;;;;5066540;28;20627;-90
2021/04/01 11:05:21;;;;;;;10.20;6.00;;;23.70;40.60;;;;;;5067076;28;20620;-89
2021/04/01 11:07:50;;;;;;;5.27;4.87;;;23.80;40.60;;;;;;5067513;28;20727;-89
2021/04/01 11:10:22;;;;;;;7.30;5.10;;;24.00;41.00;;;;;;5066890;28;21185;-89
2021/04/01 11:12:54;;;;;;;5.53;4.90;;;24.20;41.00;;;;;;5066541;28;20619;-89
2021/04/01 11:15:24;;;;;;;10.63;5.07;;;24.30;40.10;;;;;;5066686;28;20616;-89
2021/04/01 11:17:58;;;;;;;4.67;4.27;;;24.30;40.70;;;;;;5067198;28;20617;-88
2021/04/01 11:20:30;;;;;;;6.00;4.10;;;24.50;40.90;;;;;;5067160;28;20616;-89
2021/04/01 11:23:09;;;;;;;7.20;4.90;;;24.70;40.40;;;;;;5066810;28;20660;-90
2021/04/01 11:25:37;;;;;;;10.43;5.13;;;24.40;39.90;;;;;;5066949;28;20658;-89
2021/04/01 11:28:05;;;;;;;5.77;4.30;;;24.10;40.70;;;;;;5066658;28;20656;-90
2021/04/01 11:30:47;;;;;;;5.30;4.90;;;24.40;39.80;;;;;;5066147;28;20993;-89
2021/04/01 11:33:15;;;;;;;5.00;4.47;;;24.60;39.50;;;;;;5086593;28;21130;-89
2021/04/01 11:35:44;;;;;;;5.07;4.40;;;23.80;39.00;;;;;;5086684;28;20618;-90
2021/04/01 11:38:20;;;;;;;5.13;4.00;;;24.00;39.50;;;;;;5089647;28;20686;-90
2021/04/01 11:40:54;;;;;;;7.80;4.40;;;24.30;39.00;;;;;;5090456;28;20614;-89
2021/04/01 11:43:26;;;;;;;5.67;4.33;;;25.40;40.20;;;;;;5090145;28;20616;-90
2021/04/01 11:45:53;;;;;;;11.60;4.40;;;25.80;38.90;;;;;;5090733;28;21184;-90
2021/04/01 11:48:20;;;;;;;6.20;4.07;;;25.80;38.40;;;;;;5090505;28;21181;-89
2021/04/01 11:50:48;;;;;;;4.33;3.93;;;25.90;38.30;;;;;;5090652;28;20663;-90
2021/04/01 11:53:16;;;;;;;5.63;4.47;;;25.60;39.20;;;;;;5089522;28;20635;-89
2021/04/01 11:55:53;;;;;;;4.50;4.07;;;25.40;39.00;;;;;;5090416;28;21017;-90
2021/04/01 11:58:22;;;;;;;7.57;3.27;;;25.30;39.40;;;;;;5090499;28;20625;-90
2021/04/01 12:00:51;;;;;;;4.47;4.00;;;25.20;39.50;;;;;;5090674;28;20606;-90
2021/04/01 12:03:23;;;;;;;3.80;3.50;;;25.00;39.20;;;;;;5089978;28;20616;-89
2021/04/01 12:05:52;;;;;;;3.80;3.50;;;25.00;39.60;;;;;;5089105;28;20616;-88
2021/04/01 12:08:20;;;;;;;3.93;3.57;;;24.70;39.70;;;;;;5090507;28;20622;-90
2021/04/01 12:10:55;;;;;;;4.13;3.83;;;24.40;38.80;;;;;;5090286;28;20661;-90
2021/04/01 12:13:22;;;;;;;4.20;3.60;;;24.30;40.00;;;;;;5089784;28;20664;-90
2021/04/01 12:15:49;;;;;;;4.03;3.17;;;24.60;39.80;;;;;;5090070;28;21268;-90
2021/04/01 12:18:16;;;;;;;4.40;3.87;;;24.80;39.80;;;;;;5090177;28;20619;-90
2021/04/01 12:20:43;;;;;;;3.00;2.70;;;24.40;38.10;;;;;;5089820;28;20629;-89
2021/04/01 12:23:12;;;;;;;2.70;2.50;;;24.80;38.40;;;;;;5089891;28;20664;-90
2021/04/01 12:25:39;;;;;;;3.10;2.63;;;24.80;37.90;;;;;;5089860;28;20613;-90
2021/04/01 12:28:06;;;;;;;3.40;2.73;;;24.90;37.80;;;;;;5089715;28;20620;-90
2021/04/01 12:30:35;;;;;;;3.00;2.50;;;25.30;37.80;;;;;;5089483;28;20640;-90
2021/04/01 12:33:10;;;;;;;5.90;4.60;;;25.50;37.30;;;;;;5069024;28;21192;-90
2021/04/01 12:35:37;;;;;;;4.63;3.63;;;25.20;38.00;;;;;;5069603;28;20615;-90
2021/04/01 12:38:05;;;;;;;3.70;3.40;;;24.50;38.60;;;;;;5069857;28;20610;-89
2021/04/01 12:40:38;;;;;;;4.40;3.40;;;24.40;38.90;;;;;;5069901;28;20609;-90
2021/04/01 12:43:07;;;;;;;3.57;3.27;;;24.80;38.20;;;;;;5068829;28;20983;-90
2021/04/01 12:45:34;;;;;;;3.73;3.43;;;25.20;39.10;;;;;;5068584;28;20616;-90
2021/04/01 12:48:13;;;;;;;4.27;3.60;;;25.40;38.00;;;;;;5069469;28;21068;-90
2021/04/01 12:50:42;;;;;;;3.60;3.37;;;25.10;38.10;;;;;;5068604;28;20641;-90
2021/04/01 12:53:10;;;;;;;4.57;3.17;;;25.00;38.40;;;;;;5068555;28;20711;-90
2021/04/01 12:55:43;;;;;;;3.80;3.50;;;24.60;38.00;;;;;;5068232;28;20660;-88
2021/04/01 12:58:21;;;;;;;3.77;3.37;;;24.80;38.50;;;;;;5079408;28;21068;-91
2021/04/01 13:00:51;;;;;;;4.50;2.93;;;25.20;38.30;;;;;;5080310;28;20989;-91
2021/04/01 13:03:18;;;;;;;4.13;3.73;;;25.00;37.90;;;;;;5078353;28;20640;-91
2021/04/01 13:05:47;;;;;;;3.60;3.30;;;24.90;37.90;;;;;;5078103;28;20627;-90
2021/04/01 13:11:11;;;;;;;6.20;4.30;;;25.00;38.30;;;;;;5078464;28;20665;-89
2021/04/01 13:13:38;;;;;;;3.60;3.30;;;25.50;37.90;;;;;;5078099;28;20621;-90
2021/04/01 13:16:05;;;;;;;6.90;3.50;;;25.80;38.00;;;;;;5077670;28;20662;-91
2021/04/01 13:18:31;;;;;;;3.90;3.40;;;26.10;37.60;;;;;;5079581;28;20609;-91
2021/04/01 13:21:02;;;;;;;4.50;2.97;;;25.80;36.20;;;;;;5078829;28;20623;-91
2021/04/01 13:23:33;;;;;;;5.80;3.40;;;25.70;36.30;;;;;;5076622;28;20720;-91
2021/04/01 13:25:59;;;;;;;3.43;3.13;;;26.50;35.90;;;;;;5072875;28;20733;-90
2021/04/01 13:28:27;;;;;;;3.03;2.70;;;26.20;35.60;;;;;;5067769;28;21005;-91
2021/04/01 13:30:59;;;;;;;4.00;3.20;;;26.10;35.50;;;;;;5075894;28;20664;-90
2021/04/01 13:33:38;;;;;;;3.50;2.77;;;26.20;36.20;;;;;;5077252;28;20605;-91
2021/04/01 13:36:13;;;;;;;5.93;3.50;;;26.80;34.40;;;;;;5078448;28;21095;-90
2021/04/01 13:38:41;;;;;;;3.60;3.33;;;28.10;33.60;;;;;;5076782;28;20629;-90
2021/04/01 13:41:10;;;;;;;6.10;3.83;;;28.80;33.10;;;;;;5076833;28;20725;-91
2021/04/01 13:43:41;;;;;;;4.43;3.80;;;27.80;33.00;;;;;;5076723;28;20613;-91
2021/04/01 13:46:08;;;;;;;10.33;4.40;;;26.90;35.40;;;;;;5078133;28;20668;-90
2021/04/01 13:48:38;;;;;;;3.80;3.47;;;26.90;36.00;;;;;;5077076;28;20667;-90
2021/04/01 13:51:11;;;;;;;4.70;4.30;;;27.00;35.60;;;;;;5076395;28;20691;-90